createdAt,value
2023-03-20T00:00:43.788Z,95849.22
2023-03-20T00:01:47.039Z,95837.88
2023-03-20T00:02:49.841Z,95845.31
2023-03-20T00:03:51.726Z,95846.50
2023-03-20T00:04:54.622Z,95843.34
2023-03-20T00:05:57.434Z,95841.38
2023-03-20T00:06:59.326Z,95844.13
2023-03-20T00:08:02.063Z,95843.34
2023-03-20T00:09:06.891Z,95842.59
2023-03-20T00:10:11.440Z,95850.44
2023-03-20T00:11:27.063Z,95846.50
2023-03-20T00:12:29.930Z,95847.69
2023-03-20T00:13:33.183Z,95848.88
2023-03-20T00:14:36.296Z,95849.22
2023-03-20T00:15:41.712Z,95847.25
2023-03-20T00:16:45.870Z,95847.69
2023-03-20T00:17:47.717Z,95844.97
2023-03-20T00:18:50.569Z,95846.09
2023-03-20T00:19:52.404Z,95852.72
2023-03-20T00:20:55.375Z,95848.06
2023-03-20T00:21:58.389Z,95853.53
2023-03-20T00:23:01.298Z,95850.44
2023-03-20T00:24:03.198Z,95851.97
2023-03-20T00:25:06.841Z,95847.34
2023-03-20T00:26:12.770Z,95848.13
2023-03-20T00:27:17.393Z,95839.13
2023-03-20T00:28:43.306Z,95842.63
2023-03-20T00:29:45.964Z,95846.13
2023-03-20T00:30:48.846Z,95851.63
2023-03-20T00:31:51.286Z,95843.41
2023-03-20T00:32:54.297Z,95836.41
2023-03-20T00:34:00.585Z,95847.69
2023-03-20T00:35:18.494Z,95846.13
2023-03-20T00:36:21.997Z,95844.97
2023-03-20T00:37:24.822Z,95849.63
2023-03-20T00:38:26.721Z,95844.97
2023-03-20T00:39:29.529Z,95848.13
2023-03-20T00:40:31.938Z,95846.13
2023-03-20T00:41:44.142Z,95847.34
2023-03-20T00:42:49.159Z,95841.88
2023-03-20T00:43:55.392Z,95844.25
2023-03-20T00:44:59.611Z,95841.88
2023-03-20T00:46:01.445Z,95845.78
2023-03-20T00:47:07.964Z,95851.25
2023-03-20T00:48:13.321Z,95845.78
2023-03-20T00:49:16.159Z,95852.44
2023-03-20T00:50:21.901Z,95842.28
2023-03-20T00:51:24.773Z,95843.84
2023-03-20T00:52:27.200Z,95847.75
2023-03-20T00:53:30.073Z,95844.25
2023-03-20T00:54:32.359Z,95842.28
2023-03-20T00:55:36.356Z,95847.34
2023-03-20T00:56:42.626Z,95842.28
2023-03-20T00:57:48.978Z,95841.16
2023-03-20T00:58:52.443Z,95842.69
2023-03-20T00:59:59.219Z,95847.00
2023-03-20T01:01:01.368Z,95845.44
2023-03-20T01:02:04.884Z,95843.91
2023-03-20T01:03:13.174Z,95841.16
2023-03-20T01:04:18.365Z,95839.25
2023-03-20T01:05:21.145Z,95841.97
2023-03-20T01:06:24.014Z,95837.69
2023-03-20T01:07:26.562Z,95838.88
2023-03-20T01:08:29.494Z,95834.19
2023-03-20T01:09:32.407Z,95836.91
2023-03-20T01:10:35.278Z,95834.94
2023-03-20T01:11:38.555Z,95841.97
2023-03-20T01:12:42.788Z,95838.88
2023-03-20T01:13:44.685Z,95839.66
2023-03-20T01:14:52.831Z,95838.88
2023-03-20T01:15:58.006Z,95840.41
2023-03-20T01:17:00.365Z,95841.63
2023-03-20T01:18:03.383Z,95843.16
2023-03-20T01:19:05.437Z,95847.44
2023-03-20T01:20:16.174Z,95838.88
2023-03-20T01:21:19.932Z,95853.63
2023-03-20T01:22:21.802Z,95843.59
2023-03-20T01:23:26.625Z,95846.72
2023-03-20T01:24:28.456Z,95841.25
2023-03-20T01:25:31.311Z,95840.06
2023-03-20T01:26:36.718Z,95838.53
2023-03-20T01:27:40.434Z,95845.53
2023-03-20T01:28:42.502Z,95840.06
2023-03-20T01:29:46.598Z,95844.34
2023-03-20T01:30:51.030Z,95842.78
2023-03-20T01:31:55.132Z,95844.00
2023-03-20T01:33:01.623Z,95841.25
2023-03-20T01:34:06.191Z,95843.63
2023-03-20T01:35:09.383Z,95840.91
2023-03-20T01:36:13.309Z,95841.66
2023-03-20T01:37:23.006Z,95840.13
2023-03-20T01:38:28.168Z,95844.41
2023-03-20T01:39:35.925Z,95842.09
2023-03-20T01:40:49.261Z,95842.09
2023-03-20T01:41:52.820Z,95843.28
2023-03-20T01:42:55.706Z,95839.78
2023-03-20T01:43:57.816Z,95837.03
2023-03-20T01:45:00.870Z,95847.22
2023-03-20T01:46:17.491Z,95846.00
2023-03-20T01:47:23.431Z,95839.78
2023-03-20T01:48:37.805Z,95842.09
2023-03-20T01:50:17.664Z,95844.47
2023-03-20T01:51:24.161Z,95837.44
2023-03-20T01:52:28.294Z,95843.69
2023-03-20T01:53:31.611Z,95855.41
2023-03-20T01:54:39.425Z,95842.91
2023-03-20T01:55:47.990Z,95845.59
2023-03-20T01:56:54.797Z,95844.03
2023-03-20T01:58:00.951Z,95844.84
2023-03-20T01:59:10.675Z,95847.56
2023-03-20T02:00:16.727Z,95841.31
2023-03-20T02:01:19.961Z,95832.34
2023-03-20T02:02:29.674Z,95837.81
2023-03-20T02:03:33.065Z,95835.06
2023-03-20T02:04:58.499Z,95835.06
2023-03-20T02:06:01.952Z,95828.06
2023-03-20T02:07:24.492Z,95839.00
2023-03-20T02:08:43.376Z,95832.75
2023-03-20T02:09:47.188Z,95835.06
2023-03-20T02:10:55.753Z,95833.53
2023-03-20T02:12:03.590Z,95840.53
2023-03-20T02:13:07.089Z,95832.34
2023-03-20T02:14:20.656Z,95833.09
2023-03-20T02:15:56.719Z,95831.56
2023-03-20T02:17:16.273Z,95825.69
2023-03-20T02:18:23.334Z,95824.13
2023-03-20T02:19:30.791Z,95829.59
2023-03-20T02:20:45.875Z,95822.16
2023-03-20T02:22:31.186Z,95819.38
2023-03-20T02:23:57.675Z,95821.75
2023-03-20T02:25:42.812Z,95831.16
2023-03-20T02:26:59.802Z,95829.59
2023-03-20T02:28:36.334Z,95835.84
2023-03-20T02:30:09.130Z,95835.06
2023-03-20T02:31:36.271Z,95833.53
2023-03-20T02:33:18.392Z,95834.72
2023-03-20T02:35:06.217Z,95837.44
2023-03-20T02:36:22.222Z,95837.44
2023-03-20T02:37:44.635Z,95839.00
2023-03-20T02:38:58.868Z,95838.22
2023-03-20T02:40:12.487Z,95828.06
2023-03-20T02:41:23.779Z,95836.28
2023-03-20T02:42:39.360Z,95833.53
2023-03-20T02:43:45.873Z,95839.00
2023-03-20T02:44:58.828Z,95835.91
2023-03-20T02:46:11.848Z,95831.22
2023-03-20T02:47:23.587Z,95835.91
2023-03-20T02:48:36.653Z,95833.53
2023-03-20T02:49:53.095Z,95826.50
2023-03-20T02:51:01.153Z,95828.84
2023-03-20T02:52:18.163Z,95831.97
2023-03-20T02:53:31.603Z,95831.97
2023-03-20T02:54:42.543Z,95826.50
2023-03-20T02:55:48.458Z,95829.25
2023-03-20T02:56:58.399Z,95825.75
2023-03-20T02:58:06.388Z,95834.72
2023-03-20T02:59:18.416Z,95830.44
2023-03-20T03:00:28.529Z,95828.13
2023-03-20T03:01:36.882Z,95837.09
2023-03-20T03:02:43.235Z,95833.59
2023-03-20T03:03:50.415Z,95839.06
2023-03-20T03:04:57.021Z,95839.06
2023-03-20T03:06:04.988Z,95834.78
2023-03-20T03:07:10.711Z,95844.94
2023-03-20T03:08:15.765Z,95835.97
2023-03-20T03:09:22.933Z,95832.47
2023-03-20T03:10:29.995Z,95836.41
2023-03-20T03:11:36.144Z,95845.38
2023-03-20T03:12:42.314Z,95838.34
2023-03-20T03:13:49.425Z,95847.34
2023-03-20T03:14:56.655Z,95834.84
2023-03-20T03:16:04.693Z,95836.81
2023-03-20T03:17:09.542Z,95840.31
2023-03-20T03:18:15.523Z,95843.03
2023-03-20T03:19:23.099Z,95844.59
2023-03-20T03:20:29.406Z,95845.75
2023-03-20T03:21:34.895Z,95845.75
2023-03-20T03:22:37.088Z,95849.25
2023-03-20T03:23:44.649Z,95850.47
2023-03-20T03:24:50.986Z,95851.63
2023-03-20T03:25:57.568Z,95849.69
2023-03-20T03:27:02.379Z,95852.44
2023-03-20T03:28:08.682Z,95855.16
2023-03-20T03:29:15.676Z,95853.59
2023-03-20T03:30:25.937Z,95856.34
2023-03-20T03:31:30.989Z,95856.34
2023-03-20T03:32:36.778Z,95861.03
2023-03-20T03:33:41.358Z,95861.81
2023-03-20T03:34:45.097Z,95860.28
2023-03-20T03:35:48.280Z,95857.53
2023-03-20T03:36:59.848Z,95866.50
2023-03-20T03:38:08.697Z,95860.28
2023-03-20T03:39:22.361Z,95860.28
2023-03-20T03:40:33.918Z,95865.75
2023-03-20T03:41:41.773Z,95865.75
2023-03-20T03:42:51.466Z,95863.00
2023-03-20T03:44:01.354Z,95868.47
2023-03-20T03:45:08.942Z,95860.28
2023-03-20T03:46:18.115Z,95865.38
2023-03-20T03:47:25.346Z,95864.19
2023-03-20T03:48:33.470Z,95871.22
2023-03-20T03:49:40.069Z,95872.38
2023-03-20T03:50:48.689Z,95875.53
2023-03-20T03:51:56.877Z,95873.56
2023-03-20T03:53:02.667Z,95873.56
2023-03-20T03:54:09.927Z,95884.50
2023-03-20T03:55:16.261Z,95877.47
2023-03-20T03:56:36.130Z,95872.00
2023-03-20T03:57:42.518Z,95874.41
2023-03-20T03:58:52.526Z,95884.56
2023-03-20T03:59:57.247Z,95884.19
2023-03-20T04:01:03.748Z,95880.28
2023-03-20T04:02:08.451Z,95883.41
2023-03-20T04:03:13.262Z,95885.38
2023-03-20T04:04:16.628Z,95887.75
2023-03-20T04:05:21.535Z,95882.28
2023-03-20T04:06:25.880Z,95881.53
2023-03-20T04:07:29.369Z,95889.72
2023-03-20T04:08:31.429Z,95889.31
2023-03-20T04:09:36.010Z,95891.25
2023-03-20T04:10:37.904Z,95883.84
2023-03-20T04:11:49.442Z,95891.63
2023-03-20T04:12:51.421Z,95898.28
2023-03-20T04:13:54.396Z,95887.34
2023-03-20T04:14:56.477Z,95892.81
2023-03-20T04:16:01.619Z,95890.09
2023-03-20T04:17:04.932Z,95899.47
2023-03-20T04:18:08.982Z,95887.03
2023-03-20T04:19:14.262Z,95889.41
2023-03-20T04:20:21.655Z,95892.56
2023-03-20T04:21:23.606Z,95899.19
2023-03-20T04:22:27.985Z,95906.69
2023-03-20T04:23:33.101Z,95891.47
2023-03-20T04:24:36.026Z,95896.94
2023-03-20T04:25:38.247Z,95900.88
2023-03-20T04:26:41.179Z,95902.41
2023-03-20T04:27:44.529Z,95894.22
2023-03-20T04:28:55.293Z,95898.50
2023-03-20T04:30:15.952Z,95896.56
2023-03-20T04:31:37.509Z,95900.88
2023-03-20T04:32:49.942Z,95903.59
2023-03-20T04:34:10.815Z,95902.00
2023-03-20T04:35:36.616Z,95902.00
2023-03-20T04:36:46.463Z,95900.81
2023-03-20T04:37:50.359Z,95904.31
2023-03-20T04:38:57.380Z,95899.63
2023-03-20T04:39:59.795Z,95903.13
2023-03-20T04:41:02.840Z,95895.69
2023-03-20T04:42:06.001Z,95902.72
2023-03-20T04:43:10.425Z,95907.41
2023-03-20T04:44:12.342Z,95902.72
2023-03-20T04:45:17.864Z,95900.75
2023-03-20T04:46:19.828Z,95907.00
2023-03-20T04:47:22.773Z,95903.50
2023-03-20T04:48:24.903Z,95910.94
2023-03-20T04:49:28.685Z,95901.94
2023-03-20T04:50:30.844Z,95912.88
2023-03-20T04:51:34.264Z,95910.94
2023-03-20T04:52:36.272Z,95908.97
2023-03-20T04:53:39.114Z,95912.88
2023-03-20T04:54:41.164Z,95919.13
2023-03-20T04:55:44.978Z,95913.66
2023-03-20T04:56:47.987Z,95910.13
2023-03-20T04:57:53.880Z,95913.66
2023-03-20T04:58:57.112Z,95913.66
2023-03-20T05:00:00.051Z,95907.41
2023-03-20T05:01:02.116Z,95919.88
2023-03-20T05:02:05.312Z,95915.59
2023-03-20T05:03:07.419Z,95917.16
2023-03-20T05:04:10.395Z,95923.78
2023-03-20T05:05:12.299Z,95925.34
2023-03-20T05:06:15.281Z,95918.31
2023-03-20T05:07:19.184Z,95926.88
2023-03-20T05:08:34.816Z,95918.75
2023-03-20T05:09:36.666Z,95924.63
2023-03-20T05:10:41.311Z,95924.63
2023-03-20T05:12:02.266Z,95919.16
2023-03-20T05:13:23.772Z,95924.63
2023-03-20T05:14:36.041Z,95931.63
2023-03-20T05:15:57.785Z,95930.09
2023-03-20T05:17:22.036Z,95928.13
2023-03-20T05:18:48.559Z,95930.09
2023-03-20T05:20:08.670Z,95925.81
2023-03-20T05:21:30.605Z,95932.47
2023-03-20T05:22:49.340Z,95924.25
2023-03-20T05:24:12.420Z,95937.56
2023-03-20T05:25:35.436Z,95934.06
2023-03-20T05:26:54.434Z,95936.03
2023-03-20T05:28:16.059Z,95942.66
2023-03-20T05:29:26.467Z,95933.28
2023-03-20T05:30:52.815Z,95935.66
2023-03-20T05:32:10.372Z,95949.72
2023-03-20T05:33:42.105Z,95943.47
2023-03-20T05:35:01.332Z,95946.63
2023-03-20T05:36:22.351Z,95945.84
2023-03-20T05:37:31.299Z,95941.59
2023-03-20T05:38:45.620Z,95938.50
2023-03-20T05:40:08.225Z,95940.44
2023-03-20T05:41:29.891Z,95936.91
2023-03-20T05:42:45.441Z,95944.34
2023-03-20T05:43:51.194Z,95939.66
2023-03-20T05:45:11.194Z,95951.78
2023-03-20T05:46:33.528Z,95947.47
2023-03-20T05:47:47.772Z,95952.19
2023-03-20T05:49:08.351Z,95958.88
2023-03-20T05:50:29.061Z,95954.59
2023-03-20T05:51:46.890Z,95954.59
2023-03-20T05:53:09.281Z,95953.03
2023-03-20T05:54:23.706Z,95958.50
2023-03-20T05:55:36.624Z,95952.66
2023-03-20T05:56:59.823Z,95962.44
2023-03-20T05:58:20.570Z,95962.81
2023-03-20T05:59:42.047Z,95966.31
2023-03-20T06:01:21.522Z,95968.72
2023-03-20T06:02:44.920Z,95966.00
2023-03-20T06:04:11.287Z,95964.78
2023-03-20T06:05:29.504Z,95975.72
2023-03-20T06:06:31.369Z,95966.00
2023-03-20T06:07:34.193Z,95970.25
2023-03-20T06:08:41.185Z,95968.72
2023-03-20T06:09:44.220Z,95970.63
2023-03-20T06:10:50.632Z,95969.50
2023-03-20T06:11:53.645Z,95970.25
2023-03-20T06:12:57.871Z,95967.53
2023-03-20T06:14:01.502Z,95969.06
2023-03-20T06:15:13.091Z,95967.13
2023-03-20T06:16:19.710Z,95973.34
2023-03-20T06:17:26.120Z,95974.13
2023-03-20T06:18:36.509Z,95976.44
2023-03-20T06:19:38.746Z,95978.75
2023-03-20T06:20:42.263Z,95974.09
2023-03-20T06:21:44.394Z,95981.84
2023-03-20T06:22:50.978Z,95977.59
2023-03-20T06:23:54.846Z,95981.09
2023-03-20T06:24:59.989Z,95983.81
2023-03-20T06:26:11.922Z,95988.88
2023-03-20T06:27:33.168Z,95982.09
2023-03-20T06:28:35.143Z,95990.66
2023-03-20T06:29:42.934Z,95985.59
2023-03-20T06:31:02.886Z,95980.13
2023-03-20T06:32:07.840Z,95988.72
2023-03-20T06:33:11.281Z,95988.38
2023-03-20T06:34:28.473Z,95986.81
2023-03-20T06:35:32.835Z,95988.03
2023-03-20T06:36:34.730Z,95979.81
2023-03-20T06:37:42.948Z,95969.28
2023-03-20T06:38:49.779Z,95977.13
2023-03-20T06:39:53.212Z,95976.34
2023-03-20T06:40:55.114Z,95979.09
2023-03-20T06:41:59.062Z,95977.91
2023-03-20T06:43:01.707Z,95977.13
2023-03-20T06:44:15.696Z,95981.41
2023-03-20T06:45:37.516Z,95983.34
2023-03-20T06:46:46.722Z,95983.34
2023-03-20T06:47:49.857Z,95982.19
2023-03-20T06:48:52.133Z,95977.91
2023-03-20T06:49:56.562Z,95976.72
2023-03-20T06:50:58.490Z,95985.28
2023-03-20T06:52:08.995Z,95975.13
2023-03-20T06:53:12.453Z,95977.84
2023-03-20T06:54:28.414Z,95981.72
2023-03-20T06:55:30.337Z,95976.63
2023-03-20T06:56:33.362Z,95981.69
2023-03-20T06:57:36.118Z,95985.56
2023-03-20T06:58:39.356Z,95978.91
2023-03-20T06:59:41.239Z,95988.22
2023-03-20T07:00:44.421Z,95991.66
2023-03-20T07:01:46.662Z,95987.00
2023-03-20T07:02:49.728Z,95994.03
2023-03-20T07:03:53.525Z,95986.63
2023-03-20T07:05:02.335Z,95991.69
2023-03-20T07:06:05.142Z,95993.22
2023-03-20T07:07:08.170Z,95990.09
2023-03-20T07:08:10.333Z,95990.09
2023-03-20T07:09:13.268Z,95994.03
2023-03-20T07:10:15.138Z,95998.69
2023-03-20T07:11:24.261Z,95995.56
2023-03-20T07:12:30.103Z,96000.25
2023-03-20T07:13:36.078Z,95999.06
2023-03-20T07:14:48.211Z,96003.72
2023-03-20T07:16:04.036Z,95994.69
2023-03-20T07:17:13.522Z,96008.59
2023-03-20T07:18:15.438Z,96003.06
2023-03-20T07:19:18.665Z,96008.13
2023-03-20T07:20:25.783Z,96010.09
2023-03-20T07:21:28.731Z,96018.69
2023-03-20T07:22:32.443Z,96011.66
2023-03-20T07:23:58.466Z,96011.72
2023-03-20T07:25:01.209Z,96015.63
2023-03-20T07:26:05.433Z,96018.78
2023-03-20T07:27:08.879Z,96018.03
2023-03-20T07:28:10.730Z,96014.50
2023-03-20T07:29:17.019Z,96014.91
2023-03-20T07:30:19.229Z,96016.84
2023-03-20T07:31:25.726Z,96023.53
2023-03-20T07:32:41.395Z,96023.91
2023-03-20T07:33:43.620Z,96025.88
2023-03-20T07:34:47.635Z,96029.03
2023-03-20T07:35:53.897Z,96025.94
2023-03-20T07:36:57.402Z,96026.34
2023-03-20T07:38:00.395Z,96024.84
2023-03-20T07:39:02.357Z,96027.97
2023-03-20T07:40:08.256Z,96033.44
2023-03-20T07:41:19.550Z,96018.25
2023-03-20T07:42:32.859Z,96024.88
2023-03-20T07:43:46.949Z,96019.78
2023-03-20T07:45:09.349Z,96016.69
2023-03-20T07:46:12.359Z,96017.06
2023-03-20T07:47:15.277Z,96024.06
2023-03-20T07:48:18.177Z,96028.34
2023-03-20T07:49:20.435Z,96027.19
2023-03-20T07:50:23.310Z,96032.66
2023-03-20T07:51:27.807Z,96025.97
2023-03-20T07:52:30.619Z,96035.38
2023-03-20T07:53:32.478Z,96028.34
2023-03-20T07:54:35.731Z,96019.78
2023-03-20T07:55:38.745Z,96024.13
2023-03-20T07:56:41.087Z,96033.88
2023-03-20T07:57:44.649Z,96025.25
2023-03-20T07:58:48.659Z,96032.66
2023-03-20T07:59:51.521Z,96031.81
2023-03-20T08:00:53.430Z,96031.41
2023-03-20T08:01:56.334Z,96036.88
2023-03-20T08:02:58.311Z,96036.88
2023-03-20T08:04:01.584Z,96034.53
2023-03-20T08:05:06.009Z,96036.09
2023-03-20T08:06:10.905Z,96045.88
2023-03-20T08:07:15.345Z,96039.66
2023-03-20T08:08:18.396Z,96039.69
2023-03-20T08:09:20.452Z,96043.22
2023-03-20T08:10:23.363Z,96045.13
2023-03-20T08:11:26.271Z,96036.94
2023-03-20T08:12:47.885Z,96041.25
2023-03-20T08:14:09.564Z,96041.69
2023-03-20T08:15:31.072Z,96037.41
2023-03-20T08:17:10.247Z,96034.66
2023-03-20T08:18:36.142Z,96030.03
2023-03-20T08:19:58.819Z,96030.81
2023-03-20T08:21:20.481Z,96033.91
2023-03-20T08:22:45.160Z,96024.88
2023-03-20T08:24:08.600Z,96016.75
2023-03-20T08:25:33.615Z,96022.56
2023-03-20T08:26:56.977Z,96019.00
2023-03-20T08:28:03.299Z,96013.91
2023-03-20T08:29:24.716Z,96018.56
2023-03-20T08:30:46.376Z,96013.47
2023-03-20T08:32:07.867Z,96016.56
2023-03-20T08:33:31.230Z,96015.63
2023-03-20T08:34:55.778Z,96014.66
2023-03-20T08:36:21.196Z,96014.13
2023-03-20T08:37:45.825Z,96015.16
2023-03-20T08:39:09.574Z,96020.09
2023-03-20T08:40:31.347Z,96013.31
2023-03-20T08:41:53.014Z,96012.88
2023-03-20T08:43:14.546Z,96014.03
2023-03-20T08:44:36.272Z,96014.03
2023-03-20T08:45:58.092Z,96010.19
2023-03-20T08:47:22.258Z,96015.72
2023-03-20T08:48:43.533Z,96011.81
2023-03-20T08:50:05.760Z,96012.25
2023-03-20T08:51:27.296Z,96018.91
2023-03-20T08:52:51.947Z,96007.19
2023-03-20T08:54:18.336Z,96009.53
2023-03-20T08:55:41.537Z,96005.59
2023-03-20T08:57:04.834Z,96011.78
2023-03-20T08:58:22.946Z,96006.31
2023-03-20T08:59:44.246Z,96006.69
2023-03-20T09:01:06.752Z,96016.41
2023-03-20T09:02:28.728Z,96005.47
2023-03-20T09:03:50.423Z,96005.13
2023-03-20T09:05:12.030Z,96007.84
2023-03-20T09:06:38.213Z,96013.00
2023-03-20T09:08:02.827Z,96007.91
2023-03-20T09:09:29.450Z,96016.53
2023-03-20T09:10:53.329Z,96013.44
2023-03-20T09:12:15.840Z,96017.78
2023-03-20T09:13:30.012Z,96019.38
2023-03-20T09:14:51.607Z,96020.59
2023-03-20T09:16:15.007Z,96018.25
2023-03-20T09:17:36.856Z,96015.91
2023-03-20T09:18:58.501Z,96018.66
2023-03-20T09:20:19.926Z,96021.38
2023-03-20T09:21:43.116Z,96019.84
2023-03-20T09:23:07.711Z,96011.28
2023-03-20T09:24:31.449Z,96019.91
2023-03-20T09:25:54.678Z,96028.09
2023-03-20T09:27:17.969Z,96024.97
2023-03-20T09:28:41.292Z,96026.94
2023-03-20T09:30:05.370Z,96024.19
2023-03-20T09:31:28.594Z,96025.31
2023-03-20T09:32:52.380Z,96018.63
2023-03-20T09:34:15.626Z,96022.47
2023-03-20T09:35:41.770Z,96022.84
2023-03-20T09:37:06.686Z,96027.47
2023-03-20T09:38:31.322Z,96018.88
2023-03-20T09:39:46.512Z,96022.38
2023-03-20T09:41:15.314Z,96028.97
2023-03-20T09:42:47.617Z,96020.00
2023-03-20T09:44:16.567Z,96021.97
2023-03-20T09:45:48.183Z,96020.00
2023-03-20T09:47:20.981Z,96021.19
2023-03-20T09:48:52.534Z,96021.19
2023-03-20T09:50:30.147Z,96015.34
2023-03-20T09:51:38.224Z,96019.63
2023-03-20T09:52:46.197Z,96015.34
2023-03-20T09:53:54.431Z,96005.19
2023-03-20T09:55:00.297Z,96010.66
2023-03-20T09:56:02.186Z,96015.00
2023-03-20T09:57:06.191Z,96004.81
2023-03-20T09:58:15.266Z,96004.41
2023-03-20T09:59:20.739Z,96008.69
2023-03-20T10:00:28.599Z,96007.91
2023-03-20T10:01:46.310Z,96016.50
2023-03-20T10:02:53.840Z,96018.78
2023-03-20T10:03:59.199Z,96018.78
2023-03-20T10:05:04.562Z,96012.56
2023-03-20T10:06:13.033Z,96020.34
2023-03-20T10:07:19.163Z,96010.19
2023-03-20T10:08:27.085Z,96008.22
2023-03-20T10:09:31.849Z,96010.94
2023-03-20T10:10:45.164Z,96008.56
2023-03-20T10:12:04.043Z,96015.59
2023-03-20T10:13:20.365Z,96006.19
2023-03-20T10:14:31.730Z,96005.78
2023-03-20T10:15:44.616Z,96010.81
2023-03-20T10:17:03.661Z,96006.91
2023-03-20T10:18:17.333Z,96005.34
2023-03-20T10:19:24.490Z,96012.75
2023-03-20T10:20:34.443Z,96003.34
2023-03-20T10:21:43.252Z,96007.66
2023-03-20T10:22:49.596Z,96006.84
2023-03-20T10:24:00.309Z,96005.25
2023-03-20T10:25:09.745Z,96011.91
2023-03-20T10:26:15.088Z,96006.81
2023-03-20T10:27:26.965Z,96005.25
2023-03-20T10:28:36.139Z,96002.09
2023-03-20T10:29:49.741Z,96006.81
2023-03-20T10:31:03.432Z,96007.16
2023-03-20T10:32:11.768Z,96002.44
2023-03-20T10:33:27.090Z,95999.72
2023-03-20T10:34:44.336Z,95999.72
2023-03-20T10:35:54.204Z,95995.72
2023-03-20T10:37:11.514Z,95997.28
2023-03-20T10:38:25.018Z,96005.84
2023-03-20T10:39:43.029Z,95999.53
2023-03-20T10:40:47.736Z,95988.53
2023-03-20T10:41:54.545Z,95996.69
2023-03-20T10:43:02.360Z,95993.88
2023-03-20T10:44:08.158Z,95991.50
2023-03-20T10:45:23.637Z,95980.97
2023-03-20T10:46:30.351Z,95979.06
2023-03-20T10:47:36.632Z,95981.03
2023-03-20T10:48:43.029Z,95985.38
2023-03-20T10:49:51.306Z,95985.38
2023-03-20T10:50:57.799Z,95982.63
2023-03-20T10:52:02.577Z,95985.38
2023-03-20T10:53:07.695Z,95979.91
2023-03-20T10:54:22.307Z,95981.09
2023-03-20T10:55:29.745Z,95976.81
2023-03-20T10:56:42.981Z,95979.91
2023-03-20T10:57:51.353Z,95976.75
2023-03-20T10:59:02.365Z,95969.31
2023-03-20T11:00:11.012Z,95967.34
2023-03-20T11:01:14.164Z,95977.53
2023-03-20T11:02:19.214Z,95981.03
2023-03-20T11:03:24.718Z,95979.06
2023-03-20T11:04:27.838Z,95975.16
2023-03-20T11:05:32.164Z,95978.28
2023-03-20T11:06:40.307Z,95979.06
2023-03-20T11:07:42.996Z,95973.59
2023-03-20T11:08:50.921Z,95972.81
2023-03-20T11:10:08.788Z,95966.56
2023-03-20T11:11:11.687Z,95977.53
2023-03-20T11:12:20.516Z,95968.94
2023-03-20T11:13:26.477Z,95972.91
2023-03-20T11:14:35.516Z,95971.34
2023-03-20T11:15:37.644Z,95968.25
2023-03-20T11:16:41.199Z,95972.19
2023-03-20T11:17:43.143Z,95972.19
2023-03-20T11:18:47.069Z,95970.63
2023-03-20T11:19:52.516Z,95965.16
2023-03-20T11:20:56.762Z,95975.31
2023-03-20T11:22:02.227Z,95967.53
2023-03-20T11:23:06.285Z,95960.88
2023-03-20T11:24:25.323Z,95969.84
2023-03-20T11:25:31.597Z,95966.69
2023-03-20T11:26:38.522Z,95965.94
2023-03-20T11:27:41.688Z,95970.63
2023-03-20T11:28:50.225Z,95968.25
2023-03-20T11:29:55.125Z,95966.69
2023-03-20T11:31:05.387Z,95968.25
2023-03-20T11:32:16.651Z,95969.81
2023-03-20T11:33:18.564Z,95967.06
2023-03-20T11:34:26.682Z,95961.94
2023-03-20T11:35:32.449Z,95964.69
2023-03-20T11:36:36.755Z,95971.69
2023-03-20T11:37:46.003Z,95965.00
2023-03-20T11:38:50.702Z,95966.56
2023-03-20T11:40:00.935Z,95966.56
2023-03-20T11:41:05.378Z,95961.47
2023-03-20T11:42:24.615Z,95962.22
2023-03-20T11:43:28.743Z,95961.47
2023-03-20T11:44:32.999Z,95961.88
2023-03-20T11:45:36.601Z,95957.97
2023-03-20T11:46:39.508Z,95965.72
2023-03-20T11:47:43.044Z,95954.00
2023-03-20T11:48:46.980Z,95958.72
2023-03-20T11:49:54.279Z,95966.50
2023-03-20T11:51:02.179Z,95961.81
2023-03-20T11:52:14.130Z,95959.06
2023-03-20T11:53:36.670Z,95964.19
2023-03-20T11:54:46.813Z,95964.97
2023-03-20T11:56:02.483Z,95974.28
2023-03-20T11:57:05.605Z,95967.28
2023-03-20T11:58:17.621Z,95970.38
2023-03-20T11:59:22.747Z,95964.13
2023-03-20T12:00:26.746Z,95970.03
2023-03-20T12:01:31.112Z,95965.72
2023-03-20T12:02:35.780Z,95970.03
2023-03-20T12:03:43.913Z,95961.81
2023-03-20T12:04:47.839Z,95965.31
2023-03-20T12:05:49.757Z,95968.06
2023-03-20T12:06:57.828Z,95962.59
2023-03-20T12:08:03.842Z,95969.31
2023-03-20T12:09:13.452Z,95961.88
2023-03-20T12:10:16.303Z,95963.44
2023-03-20T12:11:37.258Z,95968.09
2023-03-20T12:12:45.576Z,95966.56
2023-03-20T12:13:49.898Z,95976.31
2023-03-20T12:15:00.541Z,95967.34
2023-03-20T12:16:06.247Z,95966.16
2023-03-20T12:17:28.632Z,95966.16
2023-03-20T12:18:35.813Z,95964.19
2023-03-20T12:19:40.634Z,95958.72
2023-03-20T12:20:47.735Z,95961.47
2023-03-20T12:21:57.452Z,95958.28
2023-03-20T12:23:12.392Z,95959.50
2023-03-20T12:24:32.347Z,95956.34
2023-03-20T12:25:38.731Z,95957.09
2023-03-20T12:26:49.807Z,95955.13
2023-03-20T12:28:01.108Z,95954.38
2023-03-20T12:29:08.995Z,95956.34
2023-03-20T12:30:17.524Z,95954.00
2023-03-20T12:31:27.353Z,95952.03
2023-03-20T12:32:36.011Z,95945.38
2023-03-20T12:33:45.887Z,95945.38
2023-03-20T12:34:52.397Z,95950.06
2023-03-20T12:35:57.382Z,95948.47
2023-03-20T12:37:00.478Z,95948.47
2023-03-20T12:38:03.786Z,95949.66
2023-03-20T12:39:12.598Z,95949.66
2023-03-20T12:40:17.365Z,95957.88
2023-03-20T12:41:27.656Z,95948.13
2023-03-20T12:42:41.804Z,95957.09
2023-03-20T12:44:12.051Z,95953.16
2023-03-20T12:45:21.470Z,95952.34
2023-03-20T12:46:31.908Z,95955.44
2023-03-20T12:48:07.054Z,95949.16
2023-03-20T12:49:21.637Z,95945.25
2023-03-20T12:50:32.218Z,95949.97
2023-03-20T12:51:49.308Z,95954.66
2023-03-20T12:53:02.608Z,95949.16
2023-03-20T12:54:18.024Z,95949.16
2023-03-20T12:55:30.304Z,95946.88
2023-03-20T12:56:48.731Z,95949.59
2023-03-20T12:58:02.519Z,95941.41
2023-03-20T12:59:12.912Z,95952.34
2023-03-20T13:00:28.979Z,95955.13
2023-03-20T13:01:33.338Z,95950.03
2023-03-20T13:02:49.768Z,95949.59
2023-03-20T13:04:27.094Z,95955.84
2023-03-20T13:05:37.451Z,95945.75
2023-03-20T13:06:52.428Z,95944.53
2023-03-20T13:08:10.587Z,95941.81
2023-03-20T13:09:45.409Z,95942.16
2023-03-20T13:10:56.724Z,95938.22
2023-03-20T13:12:08.041Z,95940.53
2023-03-20T13:13:21.543Z,95944.81
2023-03-20T13:14:31.663Z,95941.31
2023-03-20T13:15:50.542Z,95937.41
2023-03-20T13:17:03.531Z,95940.50
2023-03-20T13:18:13.760Z,95947.50
2023-03-20T13:19:27.780Z,95936.91
2023-03-20T13:20:32.174Z,95944.34
2023-03-20T13:21:42.389Z,95934.94
2023-03-20T13:22:54.156Z,95941.16
2023-03-20T13:24:12.898Z,95939.63
2023-03-20T13:25:26.591Z,95930.56
2023-03-20T13:26:38.296Z,95932.50
2023-03-20T13:27:48.383Z,95929.25
2023-03-20T13:28:59.162Z,95936.97
2023-03-20T13:30:09.168Z,95929.09
2023-03-20T13:31:27.964Z,95926.28
2023-03-20T13:32:45.318Z,95923.13
2023-03-20T13:33:52.990Z,95927.00
2023-03-20T13:35:14.694Z,95925.00
2023-03-20T13:36:31.629Z,95920.69
2023-03-20T13:37:38.514Z,95924.19
2023-03-20T13:38:47.080Z,95914.00
2023-03-20T13:40:04.458Z,95912.03
2023-03-20T13:41:09.988Z,95903.03
2023-03-20T13:42:15.939Z,95913.25
2023-03-20T13:43:27.761Z,95912.47
2023-03-20T13:44:32.375Z,95908.53
2023-03-20T13:45:37.892Z,95912.47